Dunlap, Iowa
Current Conditions -  °F | °C
As of 4:35 PM on Monday 24 Nov 2014 (Local Time) from KDNS Reporting Station
Scattered Clouds Scattered Clouds  
Wind Chill: 15°   Ceiling: Unl
Heat Index: 28°   Visibility: 10mi
Dew Point: 16°   Wind: 22mph
Humidity: 59%   Direction: 310°NW
Pressure: 29.8"   Gusts: 29mph
Location:  41.85°N, 95.6°W
Report Text: KDNS 242235Z AUTO 31019G25KT 10SM FEW027 SCT034 M02/M09 A2980 RMK AO2
Loading
Personal Weather Stations






























Interactive Weather Map New forecast layout! Learn more

10-Day Weather Forecast

Advertisements
Track Severe Weather on mobile